Manor, Texas
Current Conditions -  °F | °C
As of 7:35 AM on Wednesday 22 Oct 2014 (Local Time) from KEDC Reporting Station
Few Clouds Few Clouds  
Wind Chill: 63°   Ceiling: Unl
Heat Index: 63°   Visibility: 10mi
Dew Point: 57°   Wind: 3mph
Humidity: 82%   Direction: 30°NNE
Pressure: 30.09"   Gusts: NA
Location:  30.34°N, 97.56°W
Report Text: KEDC 221235Z AUTO 03003KT 10SM FEW028 17/14 A3009 RMK AO2
Loading
Personal Weather Stations






























Interactive Weather Map
Tropical Storm Tracking
New forecast layout! Learn more

10-Day Weather Forecast

Advertisements
Track Severe Weather on mobile